createdAt,value
2019-05-20T00:01:59.105Z,25.92
2019-05-20T00:04:29.348Z,26.02
2019-05-20T00:06:57.299Z,25.35
2019-05-20T00:09:25.638Z,26.97
2019-05-20T00:11:55.071Z,28.30
2019-05-20T00:14:22.956Z,25.80
2019-05-20T00:16:50.893Z,27.50
2019-05-20T00:19:18.815Z,25.23
2019-05-20T00:21:46.798Z,26.00
2019-05-20T00:24:14.756Z,25.77
2019-05-20T00:26:45.730Z,28.98
2019-05-20T00:29:13.526Z,29.85
2019-05-20T00:31:42.606Z,32.90
2019-05-20T00:34:10.541Z,26.50
2019-05-20T00:36:40.233Z,27.98
2019-05-20T00:39:21.522Z,27.15
2019-05-20T00:41:50.791Z,29.65
2019-05-20T00:44:20.413Z,29.92
2019-05-20T00:46:48.631Z,27.13
2019-05-20T00:49:16.554Z,26.48
2019-05-20T00:51:44.483Z,28.45
2019-05-20T00:54:15.207Z,29.80
2019-05-20T00:56:46.812Z,26.27
2019-05-20T00:59:18.470Z,27.98
2019-05-20T01:01:46.390Z,27.50
2019-05-20T01:04:15.266Z,28.25
2019-05-20T01:06:44.680Z,32.75
2019-05-20T01:09:12.580Z,27.62
2019-05-20T01:11:42.008Z,30.95
2019-05-20T01:14:12.474Z,28.98
2019-05-20T01:16:40.474Z,28.45
2019-05-20T01:19:08.402Z,28.05
2019-05-20T01:21:37.542Z,27.20
2019-05-20T01:24:05.439Z,29.30
2019-05-20T01:26:33.455Z,32.95
2019-05-20T01:29:13.941Z,36.15
2019-05-20T01:31:35.181Z,35.75
2019-05-20T01:34:05.417Z,35.88
2019-05-20T01:36:37.464Z,34.13
2019-05-20T01:39:06.569Z,33.40
2019-05-20T01:41:34.511Z,33.35
2019-05-20T01:44:03.091Z,34.80
2019-05-20T01:46:31.621Z,32.25
2019-05-20T01:49:01.789Z,31.25
2019-05-20T01:51:29.636Z,31.42
2019-05-20T01:53:58.556Z,33.08
2019-05-20T01:56:26.425Z,32.48
2019-05-20T01:58:54.338Z,35.38
2019-05-20T02:01:22.815Z,33.10
2019-05-20T02:03:53.056Z,33.92
2019-05-20T02:06:23.888Z,33.58
2019-05-20T02:08:51.738Z,33.78
2019-05-20T02:11:19.672Z,35.55
2019-05-20T02:13:54.126Z,35.83
2019-05-20T02:16:22.410Z,33.35
2019-05-20T02:18:50.283Z,32.63
2019-05-20T02:21:19.843Z,34.23
2019-05-20T02:23:48.359Z,37.23
2019-05-20T02:26:16.234Z,37.93
2019-05-20T02:28:44.593Z,33.80
2019-05-20T02:31:12.494Z,31.52
2019-05-20T02:33:51.833Z,36.08
2019-05-20T02:36:10.135Z,38.15
2019-05-20T02:38:38.493Z,33.85
2019-05-20T02:41:07.295Z,35.08
2019-05-20T02:43:36.923Z,34.50
2019-05-20T02:46:05.552Z,36.30
2019-05-20T02:48:34.864Z,33.80
2019-05-20T02:51:03.456Z,34.35
2019-05-20T02:53:31.896Z,35.63
2019-05-20T02:56:00.140Z,35.92
2019-05-20T02:58:27.996Z,31.23
2019-05-20T03:00:55.901Z,34.03
2019-05-20T03:03:25.421Z,34.88
2019-05-20T03:05:53.398Z,37.45
2019-05-20T03:08:21.626Z,40.38
2019-05-20T03:10:49.528Z,41.23
2019-05-20T03:13:17.414Z,42.45
2019-05-20T03:15:45.443Z,39.48
2019-05-20T03:18:13.323Z,43.30
2019-05-20T03:20:41.382Z,45.38
2019-05-20T03:23:09.484Z,43.58
2019-05-20T03:25:37.420Z,47.17
2019-05-20T03:28:06.404Z,48.80
2019-05-20T03:30:35.708Z,47.73
2019-05-20T03:33:03.633Z,50.52
2019-05-20T03:35:31.634Z,48.33
2019-05-20T03:38:01.762Z,48.78
2019-05-20T03:40:31.034Z,52.53
2019-05-20T03:42:58.954Z,52.58
2019-05-20T03:45:26.917Z,45.92
2019-05-20T03:47:56.816Z,45.45
2019-05-20T03:50:26.588Z,46.02
2019-05-20T03:52:55.508Z,43.13
2019-05-20T03:55:23.378Z,46.40
2019-05-20T03:57:51.400Z,48.38
2019-05-20T04:00:24.268Z,44.00
2019-05-20T04:02:55.184Z,44.23
2019-05-20T04:05:23.064Z,46.70
2019-05-20T04:07:50.923Z,45.90
2019-05-20T04:10:26.375Z,47.60
2019-05-20T04:12:55.338Z,49.03
2019-05-20T04:15:26.876Z,45.17
2019-05-20T04:17:54.856Z,52.35
2019-05-20T04:20:23.654Z,48.60
2019-05-20T04:22:51.522Z,52.78
2019-05-20T04:25:19.522Z,48.92
2019-05-20T04:27:54.189Z,54.77
2019-05-20T04:30:24.223Z,48.02
2019-05-20T04:32:53.036Z,46.15
2019-05-20T04:35:23.123Z,50.00
2019-05-20T04:37:50.772Z,48.30
2019-05-20T04:40:20.014Z,45.70
2019-05-20T04:42:48.367Z,46.63
2019-05-20T04:45:19.941Z,48.60
2019-05-20T04:47:49.149Z,45.00
2019-05-20T04:50:17.124Z,47.08
2019-05-20T04:52:47.879Z,47.15
2019-05-20T04:55:16.831Z,46.15
2019-05-20T04:57:44.825Z,50.43
2019-05-20T05:00:13.125Z,45.58
2019-05-20T05:02:43.609Z,48.25
2019-05-20T05:05:10.763Z,48.38
2019-05-20T05:07:38.618Z,46.98
2019-05-20T05:10:06.751Z,47.43
2019-05-20T05:12:34.597Z,45.45
2019-05-20T05:15:05.809Z,47.20
2019-05-20T05:17:32.202Z,47.70
2019-05-20T05:20:00.165Z,47.75
2019-05-20T05:22:28.143Z,48.50
2019-05-20T05:24:56.057Z,49.00
2019-05-20T05:27:23.920Z,46.73
2019-05-20T05:29:51.798Z,47.48
2019-05-20T05:32:38.678Z,49.00
2019-05-20T05:35:06.654Z,49.75
2019-05-20T05:37:34.518Z,52.17
2019-05-20T05:40:02.374Z,52.90
2019-05-20T05:42:30.241Z,54.40
2019-05-20T05:44:58.090Z,52.20
2019-05-20T05:47:25.940Z,52.65
2019-05-20T05:49:53.802Z,53.73
2019-05-20T05:52:23.015Z,57.13
2019-05-20T05:54:51.262Z,60.80
2019-05-20T05:57:19.094Z,56.08
2019-05-20T05:59:47.003Z,59.88
2019-05-20T06:02:16.042Z,65.40
2019-05-20T06:04:43.891Z,57.40
2019-05-20T06:07:11.779Z,61.53
2019-05-20T06:09:39.638Z,61.68
2019-05-20T06:12:07.586Z,63.92
2019-05-20T06:14:35.437Z,65.52
2019-05-20T06:17:03.333Z,65.90
2019-05-20T06:19:31.163Z,65.50
2019-05-20T06:21:59.045Z,58.00
2019-05-20T06:24:26.854Z,59.38
2019-05-20T06:26:54.723Z,57.40
2019-05-20T06:29:22.553Z,65.50
2019-05-20T06:31:50.404Z,59.23
2019-05-20T06:34:18.238Z,62.60
2019-05-20T06:36:48.238Z,64.07
2019-05-20T06:39:16.064Z,60.23
2019-05-20T06:41:43.932Z,59.80
2019-05-20T06:44:11.746Z,61.70
2019-05-20T06:46:39.611Z,61.42
2019-05-20T06:49:07.471Z,58.05
2019-05-20T06:51:35.350Z,64.20
2019-05-20T06:54:03.176Z,63.25
2019-05-20T06:56:31.037Z,61.40
2019-05-20T06:58:58.863Z,62.85
2019-05-20T07:01:26.705Z,63.80
2019-05-20T07:03:54.641Z,62.95
2019-05-20T07:06:22.594Z,66.95
2019-05-20T07:08:50.459Z,68.40
2019-05-20T07:11:18.278Z,72.80
2019-05-20T07:13:46.134Z,63.68
2019-05-20T07:16:13.991Z,60.60
2019-05-20T07:18:42.012Z,70.75
2019-05-20T07:21:10.007Z,62.40
2019-05-20T07:23:37.958Z,58.83
2019-05-20T07:26:05.781Z,63.08
2019-05-20T07:28:33.633Z,60.35
2019-05-20T07:31:01.463Z,62.78
2019-05-20T07:33:29.355Z,61.83
2019-05-20T07:35:57.355Z,63.68
2019-05-20T07:38:25.214Z,66.22
2019-05-20T07:40:53.053Z,71.53
2019-05-20T07:43:20.916Z,62.15
2019-05-20T07:45:49.242Z,64.67
2019-05-20T07:48:17.487Z,64.62
2019-05-20T07:50:46.083Z,69.25
2019-05-20T07:53:14.051Z,64.10
2019-05-20T07:55:45.211Z,67.87
2019-05-20T07:58:14.057Z,70.42
2019-05-20T08:00:41.934Z,60.33
2019-05-20T08:03:09.823Z,67.42
2019-05-20T08:05:37.683Z,60.28
2019-05-20T08:08:05.534Z,61.75
2019-05-20T08:10:33.405Z,60.33
2019-05-20T08:13:01.474Z,68.72
2019-05-20T08:15:29.360Z,62.23
2019-05-20T08:17:57.198Z,61.73
2019-05-20T08:20:25.063Z,66.50
2019-05-20T08:22:52.867Z,67.12
2019-05-20T08:25:20.833Z,65.67
2019-05-20T08:27:48.646Z,67.45
2019-05-20T08:30:19.636Z,77.70
2019-05-20T08:32:47.482Z,69.10
2019-05-20T08:35:15.344Z,73.52
2019-05-20T08:37:45.645Z,72.17
2019-05-20T08:40:12.874Z,69.45
2019-05-20T08:42:40.749Z,72.97
2019-05-20T08:45:08.664Z,70.57
2019-05-20T08:47:36.520Z,74.42
2019-05-20T08:50:08.733Z,70.03
2019-05-20T08:52:35.026Z,73.72
2019-05-20T08:55:03.345Z,72.12
2019-05-20T08:57:31.185Z,73.70
2019-05-20T08:59:59.106Z,66.22
2019-05-20T09:02:26.948Z,78.05
2019-05-20T09:04:54.810Z,74.47
2019-05-20T09:07:22.647Z,68.72
2019-05-20T09:09:50.567Z,71.85
2019-05-20T09:12:18.406Z,76.30
2019-05-20T09:14:46.275Z,69.90
2019-05-20T09:17:14.108Z,75.12
2019-05-20T09:19:41.915Z,68.70
2019-05-20T09:22:09.755Z,78.72
2019-05-20T09:24:37.705Z,75.45
2019-05-20T09:27:06.063Z,74.40
2019-05-20T09:29:33.963Z,73.30
2019-05-20T09:32:02.174Z,79.07
2019-05-20T09:34:30.244Z,72.50
2019-05-20T09:36:58.328Z,70.05
2019-05-20T09:39:26.254Z,72.12
2019-05-20T09:41:54.647Z,72.92
2019-05-20T09:44:22.569Z,79.80
2019-05-20T09:46:50.539Z,86.30
2019-05-20T09:49:18.398Z,82.30
2019-05-20T09:51:46.324Z,77.00
2019-05-20T09:54:14.362Z,74.35
2019-05-20T09:56:42.256Z,72.78
2019-05-20T09:59:10.157Z,77.90
2019-05-20T10:01:40.387Z,76.25
2019-05-20T10:04:08.667Z,78.10
2019-05-20T10:06:36.493Z,72.08
2019-05-20T10:09:06.085Z,72.55
2019-05-20T10:11:33.924Z,79.77
2019-05-20T10:14:01.826Z,67.70
2019-05-20T10:16:29.707Z,67.17
2019-05-20T10:18:57.633Z,75.67
2019-05-20T10:21:25.546Z,76.60
2019-05-20T10:23:54.518Z,77.42
2019-05-20T10:26:22.437Z,68.28
2019-05-20T10:28:50.304Z,81.85
2019-05-20T10:31:18.177Z,75.20
2019-05-20T10:33:46.057Z,76.45
2019-05-20T10:36:13.967Z,81.95
2019-05-20T10:38:57.314Z,79.32
2019-05-20T10:41:11.706Z,68.40
2019-05-20T10:43:39.693Z,82.72
2019-05-20T10:46:07.991Z,78.07
2019-05-20T10:48:35.874Z,75.12
2019-05-20T10:51:03.769Z,79.10
2019-05-20T10:53:31.681Z,74.35
2019-05-20T10:55:59.958Z,86.82
2019-05-20T10:58:27.971Z,74.42
2019-05-20T11:01:02.225Z,79.90
2019-05-20T11:03:25.434Z,75.45
2019-05-20T11:05:53.342Z,74.25
2019-05-20T11:08:21.191Z,77.92
2019-05-20T11:10:49.065Z,74.90
2019-05-20T11:13:16.953Z,73.65
2019-05-20T11:15:44.848Z,73.75
2019-05-20T11:18:12.703Z,76.87
2019-05-20T11:20:40.646Z,75.67
2019-05-20T11:23:08.515Z,69.62
2019-05-20T11:25:36.426Z,68.87
2019-05-20T11:28:04.389Z,67.95
2019-05-20T11:30:32.278Z,73.07
2019-05-20T11:33:00.173Z,77.80
2019-05-20T11:35:28.062Z,68.85
2019-05-20T11:37:55.940Z,74.15
2019-05-20T11:40:23.915Z,74.75
2019-05-20T11:42:51.735Z,74.42
2019-05-20T11:45:19.768Z,74.87
2019-05-20T11:47:47.595Z,69.22
2019-05-20T11:50:16.027Z,66.17
2019-05-20T11:52:44.179Z,71.82
2019-05-20T11:55:12.087Z,74.10
2019-05-20T11:57:39.964Z,66.25
2019-05-20T12:00:08.196Z,67.40
2019-05-20T12:02:36.046Z,66.53
2019-05-20T12:05:03.957Z,68.50
2019-05-20T12:07:31.816Z,67.50
2019-05-20T12:09:59.707Z,67.05
2019-05-20T12:12:27.586Z,67.50
2019-05-20T12:14:55.423Z,69.82
2019-05-20T12:17:23.319Z,63.85
2019-05-20T12:19:51.155Z,62.53
2019-05-20T12:22:19.094Z,62.10
2019-05-20T12:24:47.079Z,66.47
2019-05-20T12:27:15.202Z,67.30
2019-05-20T12:29:43.058Z,64.95
2019-05-20T12:32:10.947Z,62.80
2019-05-20T12:34:38.750Z,58.63
2019-05-20T12:37:06.634Z,60.15
2019-05-20T12:39:34.561Z,69.12
2019-05-20T12:42:02.518Z,59.75
2019-05-20T12:44:30.346Z,67.40
2019-05-20T12:46:58.235Z,64.30
2019-05-20T12:49:26.158Z,62.10
2019-05-20T12:51:54.296Z,66.12
2019-05-20T12:54:22.398Z,66.50
2019-05-20T12:56:50.226Z,63.95
2019-05-20T12:59:18.091Z,65.90
2019-05-20T13:01:46.002Z,61.60
2019-05-20T13:04:13.927Z,66.92
2019-05-20T13:06:41.821Z,62.25
2019-05-20T13:09:09.693Z,59.00
2019-05-20T13:11:37.531Z,60.55
2019-05-20T13:14:05.442Z,63.83
2019-05-20T13:16:33.299Z,61.10
2019-05-20T13:19:01.580Z,62.55
2019-05-20T13:21:29.468Z,61.05
2019-05-20T13:23:57.970Z,64.70
2019-05-20T13:26:26.122Z,63.68
2019-05-20T13:28:53.982Z,64.32
2019-05-20T13:31:21.860Z,63.48
2019-05-20T13:33:49.795Z,64.75
2019-05-20T13:36:17.677Z,59.45
2019-05-20T13:38:45.536Z,64.30
2019-05-20T13:41:13.417Z,65.28
2019-05-20T13:43:41.342Z,60.78
2019-05-20T13:46:09.188Z,59.27
2019-05-20T13:48:37.068Z,61.25
2019-05-20T13:51:04.947Z,59.98
2019-05-20T13:53:32.785Z,68.47
2019-05-20T13:56:00.828Z,69.45
2019-05-20T13:58:28.838Z,68.72
2019-05-20T14:00:56.730Z,69.37
2019-05-20T14:03:24.597Z,64.60
2019-05-20T14:05:52.432Z,71.45
2019-05-20T14:08:20.281Z,64.47
2019-05-20T14:11:02.895Z,67.10
2019-05-20T14:13:17.740Z,72.40
2019-05-20T14:15:45.621Z,71.00
2019-05-20T14:18:13.475Z,69.50
2019-05-20T14:20:41.343Z,69.95
2019-05-20T14:23:09.210Z,70.35
2019-05-20T14:25:37.092Z,67.47
2019-05-20T14:28:04.982Z,68.60
2019-05-20T14:30:32.835Z,68.95
2019-05-20T14:33:00.915Z,72.37
2019-05-20T14:35:29.062Z,71.90
2019-05-20T14:37:56.915Z,68.05
2019-05-20T14:40:24.827Z,70.57
2019-05-20T14:42:52.701Z,70.70
2019-05-20T14:45:20.578Z,65.70
2019-05-20T14:47:48.512Z,73.75
2019-05-20T14:50:16.464Z,68.12
2019-05-20T14:52:44.354Z,67.50
2019-05-20T14:55:12.225Z,64.55
2019-05-20T14:57:40.227Z,67.10
2019-05-20T15:00:08.630Z,64.70
2019-05-20T15:02:36.526Z,60.52
2019-05-20T15:05:04.775Z,66.02
2019-05-20T15:07:32.886Z,66.82
2019-05-20T15:10:00.759Z,63.40
2019-05-20T15:12:28.616Z,61.70
2019-05-20T15:14:56.487Z,63.92
2019-05-20T15:17:24.377Z,63.08
2019-05-20T15:19:52.348Z,60.63
2019-05-20T15:22:20.348Z,64.72
2019-05-20T15:24:48.217Z,58.70
2019-05-20T15:27:16.180Z,60.12
2019-05-20T15:29:44.125Z,60.90
2019-05-20T15:32:12.060Z,59.20
2019-05-20T15:34:39.927Z,61.08
2019-05-20T15:37:07.796Z,65.08
2019-05-20T15:39:35.792Z,62.38
2019-05-20T15:42:03.732Z,57.88
2019-05-20T15:44:31.776Z,63.58
2019-05-20T15:46:59.735Z,57.43
2019-05-20T15:49:27.597Z,58.65
2019-05-20T15:51:55.593Z,60.80
2019-05-20T15:54:23.523Z,58.00
2019-05-20T15:56:51.412Z,56.08
2019-05-20T15:59:19.278Z,58.58
2019-05-20T16:01:47.187Z,60.85
2019-05-20T16:04:15.091Z,59.50
2019-05-20T16:06:42.973Z,56.85
2019-05-20T16:09:10.911Z,64.10
2019-05-20T16:11:38.952Z,56.42
2019-05-20T16:14:06.875Z,60.20
2019-05-20T16:16:34.812Z,55.95
2019-05-20T16:19:04.619Z,58.08
2019-05-20T16:21:32.498Z,56.68
2019-05-20T16:24:00.383Z,56.92
2019-05-20T16:26:30.030Z,56.77
2019-05-20T16:28:57.880Z,55.15
2019-05-20T16:31:29.156Z,52.15
2019-05-20T16:33:59.601Z,56.50
2019-05-20T16:36:28.695Z,58.20
2019-05-20T16:39:15.746Z,53.35
2019-05-20T16:41:43.664Z,53.38
2019-05-20T16:44:11.595Z,52.58
2019-05-20T16:46:39.538Z,56.15
2019-05-20T16:49:09.507Z,51.00
2019-05-20T16:51:37.456Z,54.05
2019-05-20T16:54:07.424Z,52.13
2019-05-20T16:56:36.756Z,50.73
2019-05-20T16:59:06.242Z,54.90
2019-05-20T17:01:45.889Z,52.85
2019-05-20T17:04:04.284Z,52.23
2019-05-20T17:06:32.288Z,51.83
2019-05-20T17:09:01.524Z,54.03
2019-05-20T17:11:29.573Z,56.28
2019-05-20T17:13:57.907Z,50.65
2019-05-20T17:16:26.456Z,53.28
2019-05-20T17:18:54.353Z,51.73
2019-05-20T17:21:22.724Z,53.65
2019-05-20T17:23:50.649Z,52.30
2019-05-20T17:26:20.124Z,48.63
2019-05-20T17:28:50.962Z,51.30
2019-05-20T17:31:21.189Z,51.90
2019-05-20T17:33:51.591Z,46.95
2019-05-20T17:36:19.674Z,52.10
2019-05-20T17:38:49.605Z,57.00
2019-05-20T17:41:17.963Z,48.25
2019-05-20T17:43:46.522Z,51.90
2019-05-20T17:46:14.834Z,52.90
2019-05-20T17:48:44.713Z,50.50
2019-05-20T17:51:13.493Z,48.25
2019-05-20T17:53:41.472Z,43.48
2019-05-20T17:56:09.534Z,48.95
2019-05-20T17:58:37.531Z,45.43
2019-05-20T18:01:15.301Z,45.30
2019-05-20T18:03:38.063Z,46.53
2019-05-20T18:06:06.132Z,50.92
2019-05-20T18:08:36.362Z,47.90
2019-05-20T18:11:05.711Z,48.17
2019-05-20T18:13:33.807Z,50.58
2019-05-20T18:16:02.792Z,49.58
2019-05-20T18:18:30.799Z,54.95
2019-05-20T18:20:59.979Z,54.63
2019-05-20T18:23:28.980Z,57.75
2019-05-20T18:25:56.961Z,52.88
2019-05-20T18:28:24.951Z,59.40
2019-05-20T18:30:56.556Z,64.15
2019-05-20T18:33:25.602Z,59.48
2019-05-20T18:35:54.166Z,59.50
2019-05-20T18:38:23.574Z,64.25
2019-05-20T18:40:51.489Z,60.65
2019-05-20T18:43:19.521Z,64.32
2019-05-20T18:45:47.434Z,62.55
2019-05-20T18:48:17.731Z,64.42
2019-05-20T18:50:45.795Z,62.60
2019-05-20T18:53:16.469Z,58.60
2019-05-20T18:55:44.439Z,63.68
2019-05-20T18:58:12.402Z,63.10
2019-05-20T19:00:40.307Z,61.08
2019-05-20T19:03:08.273Z,66.67
2019-05-20T19:05:36.199Z,61.58
2019-05-20T19:08:04.182Z,64.92
2019-05-20T19:10:32.112Z,68.52
2019-05-20T19:13:00.021Z,60.58
2019-05-20T19:15:27.912Z,66.92
2019-05-20T19:17:57.181Z,66.53
2019-05-20T19:20:26.208Z,62.13
2019-05-20T19:22:54.141Z,65.05
2019-05-20T19:25:22.111Z,64.03
2019-05-20T19:27:50.551Z,62.20
2019-05-20T19:30:18.900Z,61.50
2019-05-20T19:32:46.853Z,70.17
2019-05-20T19:35:14.743Z,67.80
2019-05-20T19:37:42.669Z,68.05
2019-05-20T19:40:11.882Z,65.25
2019-05-20T19:42:39.811Z,63.02
2019-05-20T19:45:08.203Z,64.20
2019-05-20T19:47:36.037Z,65.92
2019-05-20T19:50:07.264Z,67.90
2019-05-20T19:52:35.240Z,66.42
2019-05-20T19:55:03.178Z,63.98
2019-05-20T19:57:31.133Z,64.15
2019-05-20T19:59:59.151Z,65.70
2019-05-20T20:02:27.062Z,62.40
2019-05-20T20:04:56.003Z,67.10
2019-05-20T20:07:23.991Z,64.85
2019-05-20T20:09:51.972Z,69.90
2019-05-20T20:12:20.356Z,70.67
2019-05-20T20:14:54.732Z,75.10
2019-05-20T20:17:22.903Z,64.72
2019-05-20T20:19:50.840Z,73.55
2019-05-20T20:22:20.371Z,65.95
2019-05-20T20:24:50.873Z,71.72
2019-05-20T20:27:18.882Z,67.78
2019-05-20T20:29:46.777Z,68.70
2019-05-20T20:32:17.201Z,66.85
2019-05-20T20:34:45.218Z,61.50
2019-05-20T20:37:13.170Z,65.15
2019-05-20T20:39:43.060Z,67.78
2019-05-20T20:42:11.176Z,64.80
2019-05-20T20:44:39.090Z,64.75
2019-05-20T20:47:07.039Z,59.42
2019-05-20T20:49:34.987Z,65.40
2019-05-20T20:52:04.790Z,65.17
2019-05-20T20:54:35.793Z,65.20
2019-05-20T20:57:04.203Z,62.85
2019-05-20T20:59:32.292Z,62.17
2019-05-20T21:02:00.770Z,57.62
2019-05-20T21:04:30.000Z,62.50
2019-05-20T21:07:00.137Z,61.42
2019-05-20T21:09:29.023Z,59.20
2019-05-20T21:11:58.667Z,61.80
2019-05-20T21:14:26.694Z,60.08
2019-05-20T21:16:54.933Z,62.45
2019-05-20T21:19:24.476Z,56.80
2019-05-20T21:21:52.436Z,54.70
2019-05-20T21:24:22.333Z,52.30
2019-05-20T21:26:51.060Z,56.55
2019-05-20T21:29:19.065Z,57.45
2019-05-20T21:31:49.078Z,57.03
2019-05-20T21:34:17.274Z,56.23
2019-05-20T21:36:48.160Z,55.23
2019-05-20T21:39:14.924Z,59.58
2019-05-20T21:41:44.832Z,57.25
2019-05-20T21:44:15.068Z,53.70
2019-05-20T21:47:10.401Z,54.75
2019-05-20T21:49:38.323Z,56.37
2019-05-20T21:52:06.825Z,53.05
2019-05-20T21:54:34.766Z,52.60
2019-05-20T21:57:02.647Z,50.05
2019-05-20T21:59:31.782Z,48.90
2019-05-20T22:02:00.158Z,48.40
2019-05-20T22:04:31.243Z,49.05
2019-05-20T22:06:59.562Z,46.88
2019-05-20T22:09:27.513Z,46.35
2019-05-20T22:11:57.404Z,44.15
2019-05-20T22:14:26.614Z,43.38
2019-05-20T22:16:54.593Z,44.42
2019-05-20T22:19:22.584Z,44.65
2019-05-20T22:21:56.552Z,45.17
2019-05-20T22:24:26.640Z,44.83
2019-05-20T22:26:54.507Z,46.05
2019-05-20T22:29:23.988Z,45.90
2019-05-20T22:31:51.896Z,45.45
2019-05-20T22:34:21.874Z,44.03
2019-05-20T22:36:49.772Z,43.78
2019-05-20T22:39:17.800Z,45.38
2019-05-20T22:41:46.092Z,41.08
2019-05-20T22:44:14.067Z,49.73
2019-05-20T22:46:42.598Z,49.75
2019-05-20T22:49:10.478Z,48.92
2019-05-20T22:51:40.648Z,52.27
2019-05-20T22:54:10.882Z,52.40
2019-05-20T22:56:39.003Z,50.40
2019-05-20T22:59:07.068Z,56.83
2019-05-20T23:01:36.383Z,51.80
2019-05-20T23:04:05.445Z,52.48
2019-05-20T23:06:34.104Z,53.20
2019-05-20T23:09:02.732Z,55.63
2019-05-20T23:11:30.807Z,57.05
2019-05-20T23:14:00.355Z,60.73
2019-05-20T23:16:29.554Z,57.38
2019-05-20T23:18:57.537Z,64.65
2019-05-20T23:21:30.249Z,59.25
2019-05-20T23:23:58.157Z,58.65
2019-05-20T23:26:29.718Z,54.80
2019-05-20T23:29:04.658Z,60.70
2019-05-20T23:31:32.773Z,65.17
2019-05-20T23:34:12.150Z,58.98
2019-05-20T23:36:31.900Z,56.77
2019-05-20T23:38:59.784Z,61.15
2019-05-20T23:41:27.763Z,59.18
2019-05-20T23:43:55.694Z,61.88
2019-05-20T23:46:23.704Z,61.75
2019-05-20T23:48:53.585Z,60.70
2019-05-20T23:51:21.466Z,62.45
2019-05-20T23:53:49.394Z,63.63
2019-05-20T23:56:17.787Z,63.38
2019-05-20T23:58:46.249Z,67.92
